Fuente el Saz, Spain
Current Conditions -  °F | °C
As of 3:00 PM on Thursday 30 Oct 2014 (Local Time) from LETO Reporting Station
Clear Clear  
Wind Chill: 79°   Ceiling: Unl
Heat Index: 79°   Visibility: 6mi
Dew Point: 46°   Wind: 0mph
Humidity: 32%   Direction: NA
Pressure: 30.18"   Gusts: NA
Location:  40.63°N, 3.51°W
Report Text: LETO 301400Z 00000KT CAVOK 26/08 Q1022 NOSIG
Loading
Personal Weather Stations






























Interactive Weather Map
Tropical Storm Tracking
New forecast layout! Learn more

10-Day Weather Forecast

Advertisements
Track Severe Weather on mobile